Weather at Ninoy Aquino International Airport

Public forecast

Using degrees Celsius for public forecast. Weather courtesy of forecast.io.

Current aviation weather report (METAR) for Ninoy Aquino International Airport

Retrieved 2022/07/04 12:00 UTC (29 minutes ago):

RPLL 041200Z 07005KT 9000 -RA SCT022 OVC090 27/25 Q1009 NOSIG RMK A2980

Aviation forecast (TAF) for Ninoy Aquino International Airport

Retrieved 2022/07/04 12:00 UTC (29 minutes ago):

TAF RPLL 041100Z 0412/0518 27006KT 9999 FEW025 BKN100 TX33/0506Z TN26/0421Z TEMPO 0412/0418 14006KT 9000 -SHRA FEW023CB SCT025 OVC100 TEMPO 0418/0424 VRB02KT